sensor_id;sensor_type;location;lat;lon;timestamp;P1;durP1;ratioP1;P2;durP2;ratioP2
40601;SDS011;26310;50.278;19.032;2023-05-10T04:48:23;7.80;;;4.40;;
40601;SDS011;26310;50.278;19.032;2023-05-10T04:53:26;4.23;;;2.63;;
40601;SDS011;26310;50.278;19.032;2023-05-10T04:58:29;6.60;;;3.40;;
40601;SDS011;26310;50.278;19.032;2023-05-10T05:03:32;5.17;;;3.70;;
40601;SDS011;26310;50.278;19.032;2023-05-10T05:08:35;4.53;;;3.23;;
40601;SDS011;26310;50.278;19.032;2023-05-10T05:13:38;6.60;;;3.40;;
40601;SDS011;26310;50.278;19.032;2023-05-10T05:18:40;6.07;;;3.70;;
40601;SDS011;26310;50.278;19.032;2023-05-10T05:23:43;6.07;;;4.33;;
40601;SDS011;26310;50.278;19.032;2023-05-10T05:28:46;7.67;;;3.97;;
40601;SDS011;26310;50.278;19.032;2023-05-10T05:33:50;6.00;;;3.63;;
40601;SDS011;26310;50.278;19.032;2023-05-10T05:38:53;5.63;;;3.50;;
40601;SDS011;26310;50.278;19.032;2023-05-10T05:43:56;7.70;;;4.13;;
40601;SDS011;26310;50.278;19.032;2023-05-10T05:48:59;10.53;;;4.57;;
40601;SDS011;26310;50.278;19.032;2023-05-10T05:54:02;5.50;;;4.10;;
40601;SDS011;26310;50.278;19.032;2023-05-10T05:59:06;5.67;;;3.60;;
40601;SDS011;26310;50.278;19.032;2023-05-10T06:04:08;8.77;;;3.33;;
40601;SDS011;26310;50.278;19.032;2023-05-10T06:09:11;5.17;;;3.03;;
40601;SDS011;26310;50.278;19.032;2023-05-10T06:14:14;5.23;;;3.23;;
40601;SDS011;26310;50.278;19.032;2023-05-10T06:19:17;8.23;;;3.40;;
40601;SDS011;26310;50.278;19.032;2023-05-10T06:24:20;5.77;;;3.23;;
40601;SDS011;26310;50.278;19.032;2023-05-10T06:29:23;6.27;;;3.27;;
40601;SDS011;26310;50.278;19.032;2023-05-10T06:34:26;4.23;;;3.10;;
40601;SDS011;26310;50.278;19.032;2023-05-10T06:39:29;3.03;;;2.63;;
40601;SDS011;26310;50.278;19.032;2023-05-10T06:44:31;8.27;;;2.43;;
40601;SDS011;26310;50.278;19.032;2023-05-10T06:49:34;5.40;;;2.77;;
40601;SDS011;26310;50.278;19.032;2023-05-10T06:54:38;6.20;;;2.13;;
40601;SDS011;26310;50.278;19.032;2023-05-10T06:59:41;10.17;;;2.60;;
40601;SDS011;26310;50.278;19.032;2023-05-10T07:04:44;4.53;;;2.50;;
40601;SDS011;26310;50.278;19.032;2023-05-10T07:09:49;4.60;;;2.33;;
40601;SDS011;26310;50.278;19.032;2023-05-10T07:14:52;3.17;;;1.83;;
40601;SDS011;26310;50.278;19.032;2023-05-10T07:19:55;2.93;;;2.13;;
40601;SDS011;26310;50.278;19.032;2023-05-10T07:24:58;3.30;;;1.80;;
40601;SDS011;26310;50.278;19.032;2023-05-10T07:30:01;6.63;;;1.60;;
40601;SDS011;26310;50.278;19.032;2023-05-10T07:35:04;3.77;;;1.87;;
40601;SDS011;26310;50.278;19.032;2023-05-10T07:40:08;1.60;;;1.50;;
40601;SDS011;26310;50.278;19.032;2023-05-10T07:45:11;2.73;;;1.77;;
40601;SDS011;26310;50.278;19.032;2023-05-10T07:50:14;2.47;;;1.63;;
40601;SDS011;26310;50.278;19.032;2023-05-10T07:55:18;2.20;;;1.50;;
40601;SDS011;26310;50.278;19.032;2023-05-10T08:00:21;2.50;;;1.20;;
40601;SDS011;26310;50.278;19.032;2023-05-10T08:05:24;3.40;;;1.70;;
40601;SDS011;26310;50.278;19.032;2023-05-10T08:10:27;2.93;;;1.47;;
40601;SDS011;26310;50.278;19.032;2023-05-10T08:15:30;1.43;;;1.20;;
40601;SDS011;26310;50.278;19.032;2023-05-10T08:20:32;2.33;;;1.53;;
40601;SDS011;26310;50.278;19.032;2023-05-10T08:25:35;2.23;;;1.20;;
40601;SDS011;26310;50.278;19.032;2023-05-10T08:30:38;1.97;;;1.40;;
40601;SDS011;26310;50.278;19.032;2023-05-10T08:35:41;1.50;;;1.07;;
40601;SDS011;26310;50.278;19.032;2023-05-10T08:40:44;1.50;;;1.33;;
40601;SDS011;26310;50.278;19.032;2023-05-10T08:45:47;1.70;;;1.30;;
40601;SDS011;26310;50.278;19.032;2023-05-10T08:50:52;2.40;;;1.20;;
40601;SDS011;26310;50.278;19.032;2023-05-10T08:55:59;1.13;;;1.03;;
40601;SDS011;26310;50.278;19.032;2023-05-10T09:01:03;1.90;;;1.60;;
40601;SDS011;26310;50.278;19.032;2023-05-10T09:06:06;2.00;;;1.53;;
40601;SDS011;26310;50.278;19.032;2023-05-10T09:11:09;2.40;;;1.30;;
40601;SDS011;26310;50.278;19.032;2023-05-10T09:16:14;1.30;;;1.20;;
40601;SDS011;26310;50.278;19.032;2023-05-10T09:21:23;1.63;;;1.53;;
40601;SDS011;26310;50.278;19.032;2023-05-10T09:26:26;2.17;;;1.40;;
40601;SDS011;26310;50.278;19.032;2023-05-10T09:31:45;1.53;;;1.20;;
40601;SDS011;26310;50.278;19.032;2023-05-10T09:36:59;2.30;;;1.60;;
40601;SDS011;26310;50.278;19.032;2023-05-10T09:42:07;1.70;;;1.30;;
40601;SDS011;26310;50.278;19.032;2023-05-10T09:47:11;1.70;;;1.57;;
40601;SDS011;26310;50.278;19.032;2023-05-10T09:52:21;2.20;;;1.17;;
40601;SDS011;26310;50.278;19.032;2023-05-10T09:57:24;2.83;;;1.47;;
40601;SDS011;26310;50.278;19.032;2023-05-10T10:02:28;1.60;;;1.30;;
40601;SDS011;26310;50.278;19.032;2023-05-10T10:07:31;1.97;;;1.33;;
40601;SDS011;26310;50.278;19.032;2023-05-10T10:12:34;2.17;;;1.30;;
40601;SDS011;26310;50.278;19.032;2023-05-10T10:17:37;2.27;;;1.40;;
40601;SDS011;26310;50.278;19.032;2023-05-10T10:22:40;2.93;;;1.30;;
40601;SDS011;26310;50.278;19.032;2023-05-10T10:27:48;1.63;;;1.37;;
40601;SDS011;26310;50.278;19.032;2023-05-10T10:43:48;3.07;;;2.20;;
40601;SDS011;26310;50.278;19.032;2023-05-10T10:49:08;2.83;;;1.50;;
40601;SDS011;26310;50.278;19.032;2023-05-10T10:54:12;2.03;;;1.60;;
40601;SDS011;26310;50.278;19.032;2023-05-10T10:59:22;2.03;;;1.50;;
40601;SDS011;26310;50.278;19.032;2023-05-10T11:04:29;3.97;;;1.70;;
40601;SDS011;26310;50.278;19.032;2023-05-10T11:09:46;3.37;;;1.43;;
40601;SDS011;26310;50.278;19.032;2023-05-10T11:14:50;1.50;;;1.40;;
40601;SDS011;26310;50.278;19.032;2023-05-10T11:20:09;2.40;;;1.50;;
40601;SDS011;26310;50.278;19.032;2023-05-10T11:25:12;1.75;;;1.35;;
40601;SDS011;26310;50.278;19.032;2023-05-10T11:30:15;1.93;;;1.47;;
40601;SDS011;26310;50.278;19.032;2023-05-10T11:35:18;1.67;;;1.30;;
40601;SDS011;26310;50.278;19.032;2023-05-10T11:40:21;2.50;;;1.57;;
40601;SDS011;26310;50.278;19.032;2023-05-10T11:45:28;2.30;;;1.17;;
40601;SDS011;26310;50.278;19.032;2023-05-10T11:50:33;1.73;;;1.27;;
40601;SDS011;26310;50.278;19.032;2023-05-10T11:55:35;3.33;;;1.70;;
40601;SDS011;26310;50.278;19.032;2023-05-10T12:00:38;3.05;;;1.63;;
40601;SDS011;26310;50.278;19.032;2023-05-10T12:05:41;3.63;;;1.30;;
40601;SDS011;26310;50.278;19.032;2023-05-10T12:10:44;1.93;;;1.33;;
40601;SDS011;26310;50.278;19.032;2023-05-10T12:15:47;1.70;;;1.10;;
40601;SDS011;26310;50.278;19.032;2023-05-10T12:20:51;1.70;;;1.30;;
40601;SDS011;26310;50.278;19.032;2023-05-10T12:26:01;2.13;;;1.50;;
40601;SDS011;26310;50.278;19.032;2023-05-10T12:31:05;2.25;;;1.30;;
40601;SDS011;26310;50.278;19.032;2023-05-10T12:36:08;1.63;;;1.30;;
40601;SDS011;26310;50.278;19.032;2023-05-10T12:41:13;1.80;;;1.48;;
40601;SDS011;26310;50.278;19.032;2023-05-10T12:46:19;3.08;;;1.40;;
40601;SDS011;26310;50.278;19.032;2023-05-10T12:51:22;3.13;;;1.48;;
40601;SDS011;26310;50.278;19.032;2023-05-10T12:56:25;1.88;;;1.33;;
40601;SDS011;26310;50.278;19.032;2023-05-10T13:01:28;1.13;;;1.00;;
40601;SDS011;26310;50.278;19.032;2023-05-10T13:06:34;2.47;;;1.20;;
40601;SDS011;26310;50.278;19.032;2023-05-10T13:11:37;1.55;;;1.25;;
40601;SDS011;26310;50.278;19.032;2023-05-10T13:16:39;1.30;;;1.20;;
40601;SDS011;26310;50.278;19.032;2023-05-10T13:21:43;2.97;;;1.70;;
40601;SDS011;26310;50.278;19.032;2023-05-10T13:26:46;1.98;;;1.30;;
40601;SDS011;26310;50.278;19.032;2023-05-10T13:31:49;1.50;;;1.10;;
40601;SDS011;26310;50.278;19.032;2023-05-10T13:36:52;1.83;;;1.58;;
40601;SDS011;26310;50.278;19.032;2023-05-10T13:41:57;1.90;;;1.40;;
40601;SDS011;26310;50.278;19.032;2023-05-10T13:47:00;2.00;;;1.63;;
40601;SDS011;26310;50.278;19.032;2023-05-10T13:52:03;1.95;;;1.60;;
40601;SDS011;26310;50.278;19.032;2023-05-10T13:57:08;1.98;;;1.30;;
40601;SDS011;26310;50.278;19.032;2023-05-10T14:02:13;2.33;;;1.50;;
40601;SDS011;26310;50.278;19.032;2023-05-10T14:07:16;1.50;;;1.30;;
40601;SDS011;26310;50.278;19.032;2023-05-10T14:12:19;3.15;;;1.45;;
40601;SDS011;26310;50.278;19.032;2023-05-10T14:17:22;1.85;;;1.50;;
40601;SDS011;26310;50.278;19.032;2023-05-10T14:22:25;1.90;;;1.80;;
40601;SDS011;26310;50.278;19.032;2023-05-10T14:27:28;1.80;;;1.40;;
40601;SDS011;26310;50.278;19.032;2023-05-10T14:32:32;1.83;;;1.48;;
40601;SDS011;26310;50.278;19.032;2023-05-10T14:37:35;1.77;;;1.20;;
40601;SDS011;26310;50.278;19.032;2023-05-10T14:42:38;2.95;;;1.50;;
40601;SDS011;26310;50.278;19.032;2023-05-10T14:47:41;1.92;;;1.40;;
40601;SDS011;26310;50.278;19.032;2023-05-10T14:52:44;1.83;;;1.30;;
40601;SDS011;26310;50.278;19.032;2023-05-10T14:57:47;1.30;;;1.08;;
40601;SDS011;26310;50.278;19.032;2023-05-10T15:02:51;1.33;;;1.23;;
40601;SDS011;26310;50.278;19.032;2023-05-10T15:07:55;1.48;;;1.10;;
40601;SDS011;26310;50.278;19.032;2023-05-10T15:12:58;5.80;;;1.30;;
40601;SDS011;26310;50.278;19.032;2023-05-10T15:18:01;2.53;;;1.95;;
40601;SDS011;26310;50.278;19.032;2023-05-10T15:23:04;2.50;;;1.50;;
40601;SDS011;26310;50.278;19.032;2023-05-10T15:28:07;3.97;;;1.80;;
40601;SDS011;26310;50.278;19.032;2023-05-10T15:33:10;1.50;;;1.23;;
40601;SDS011;26310;50.278;19.032;2023-05-10T15:38:13;2.30;;;2.07;;
40601;SDS011;26310;50.278;19.032;2023-05-10T15:43:16;3.20;;;2.17;;
40601;SDS011;26310;50.278;19.032;2023-05-10T15:48:19;2.13;;;1.40;;
40601;SDS011;26310;50.278;19.032;2023-05-10T15:53:22;1.75;;;1.38;;
40601;SDS011;26310;50.278;19.032;2023-05-10T15:58:25;2.37;;;1.70;;
40601;SDS011;26310;50.278;19.032;2023-05-10T16:03:28;1.47;;;1.03;;
40601;SDS011;26310;50.278;19.032;2023-05-10T16:08:31;2.00;;;1.60;;
40601;SDS011;26310;50.278;19.032;2023-05-10T16:13:34;3.20;;;1.90;;
40601;SDS011;26310;50.278;19.032;2023-05-10T16:18:37;1.93;;;1.50;;
40601;SDS011;26310;50.278;19.032;2023-05-10T16:23:40;1.57;;;1.30;;
40601;SDS011;26310;50.278;19.032;2023-05-10T16:28:44;2.25;;;1.40;;
40601;SDS011;26310;50.278;19.032;2023-05-10T16:33:47;3.07;;;1.97;;
40601;SDS011;26310;50.278;19.032;2023-05-10T16:38:50;5.70;;;1.93;;
40601;SDS011;26310;50.278;19.032;2023-05-10T16:43:53;4.70;;;2.17;;
40601;SDS011;26310;50.278;19.032;2023-05-10T16:48:58;3.27;;;1.87;;
40601;SDS011;26310;50.278;19.032;2023-05-10T16:54:01;3.07;;;1.57;;
40601;SDS011;26310;50.278;19.032;2023-05-10T16:59:04;11.13;;;1.90;;
40601;SDS011;26310;50.278;19.032;2023-05-10T17:04:07;2.40;;;1.70;;
40601;SDS011;26310;50.278;19.032;2023-05-10T17:09:09;5.33;;;1.90;;
40601;SDS011;26310;50.278;19.032;2023-05-10T17:14:12;2.70;;;1.80;;
40601;SDS011;26310;50.278;19.032;2023-05-10T17:19:15;2.77;;;2.10;;
40601;SDS011;26310;50.278;19.032;2023-05-10T17:24:18;3.00;;;1.73;;
40601;SDS011;26310;50.278;19.032;2023-05-10T17:29:21;1.87;;;1.60;;
40601;SDS011;26310;50.278;19.032;2023-05-10T17:34:24;2.47;;;1.83;;
40601;SDS011;26310;50.278;19.032;2023-05-10T17:39:27;2.40;;;1.70;;
40601;SDS011;26310;50.278;19.032;2023-05-10T17:44:30;1.77;;;1.30;;
40601;SDS011;26310;50.278;19.032;2023-05-10T17:49:33;2.90;;;1.53;;
40601;SDS011;26310;50.278;19.032;2023-05-10T17:54:36;2.07;;;1.43;;
40601;SDS011;26310;50.278;19.032;2023-05-10T17:59:39;3.40;;;1.90;;
40601;SDS011;26310;50.278;19.032;2023-05-10T18:04:42;4.13;;;2.40;;
40601;SDS011;26310;50.278;19.032;2023-05-10T18:09:45;1.93;;;1.60;;
40601;SDS011;26310;50.278;19.032;2023-05-10T18:14:48;3.03;;;1.90;;
40601;SDS011;26310;50.278;19.032;2023-05-10T18:19:51;2.87;;;1.67;;
40601;SDS011;26310;50.278;19.032;2023-05-10T18:24:53;4.33;;;1.90;;
40601;SDS011;26310;50.278;19.032;2023-05-10T18:29:56;2.77;;;1.73;;
40601;SDS011;26310;50.278;19.032;2023-05-10T18:34:59;3.23;;;1.90;;
40601;SDS011;26310;50.278;19.032;2023-05-10T18:40:02;2.23;;;1.67;;
40601;SDS011;26310;50.278;19.032;2023-05-10T18:45:07;4.63;;;1.90;;
40601;SDS011;26310;50.278;19.032;2023-05-10T18:50:10;3.17;;;1.70;;
40601;SDS011;26310;50.278;19.032;2023-05-10T18:55:13;4.20;;;2.13;;
40601;SDS011;26310;50.278;19.032;2023-05-10T19:00:17;5.00;;;2.03;;
40601;SDS011;26310;50.278;19.032;2023-05-10T19:05:21;3.93;;;2.57;;
40601;SDS011;26310;50.278;19.032;2023-05-10T19:10:30;3.77;;;2.23;;
40601;SDS011;26310;50.278;19.032;2023-05-10T19:15:33;3.73;;;1.87;;
40601;SDS011;26310;50.278;19.032;2023-05-10T19:20:36;2.00;;;1.40;;
40601;SDS011;26310;50.278;19.032;2023-05-10T19:25:43;3.23;;;2.13;;
40601;SDS011;26310;50.278;19.032;2023-05-10T19:30:46;4.07;;;2.57;;
40601;SDS011;26310;50.278;19.032;2023-05-10T19:36:14;2.50;;;2.13;;
40601;SDS011;26310;50.278;19.032;2023-05-10T19:41:54;4.57;;;2.10;;
40601;SDS011;26310;50.278;19.032;2023-05-10T19:54:15;3.30;;;2.20;;
40601;SDS011;26310;50.278;19.032;2023-05-10T19:59:18;3.67;;;2.33;;
40601;SDS011;26310;50.278;19.032;2023-05-10T20:04:21;4.70;;;1.90;;
40601;SDS011;26310;50.278;19.032;2023-05-10T20:09:24;3.53;;;2.30;;
40601;SDS011;26310;50.278;19.032;2023-05-10T20:14:26;4.47;;;2.07;;
40601;SDS011;26310;50.278;19.032;2023-05-10T20:19:29;4.00;;;2.23;;
40601;SDS011;26310;50.278;19.032;2023-05-10T20:24:32;3.30;;;1.93;;
40601;SDS011;26310;50.278;19.032;2023-05-10T20:29:35;5.03;;;2.13;;
40601;SDS011;26310;50.278;19.032;2023-05-10T20:34:38;3.83;;;1.80;;
40601;SDS011;26310;50.278;19.032;2023-05-10T20:39:40;2.63;;;1.90;;
40601;SDS011;26310;50.278;19.032;2023-05-10T20:44:43;3.27;;;2.23;;
40601;SDS011;26310;50.278;19.032;2023-05-10T20:49:46;2.67;;;2.20;;
40601;SDS011;26310;50.278;19.032;2023-05-10T20:54:49;3.93;;;2.27;;
40601;SDS011;26310;50.278;19.032;2023-05-10T20:59:52;3.70;;;2.10;;
40601;SDS011;26310;50.278;19.032;2023-05-10T21:04:55;4.43;;;2.27;;
40601;SDS011;26310;50.278;19.032;2023-05-10T21:09:58;3.53;;;2.13;;
40601;SDS011;26310;50.278;19.032;2023-05-10T21:15:02;3.57;;;2.30;;
40601;SDS011;26310;50.278;19.032;2023-05-10T21:20:06;7.40;;;2.20;;
40601;SDS011;26310;50.278;19.032;2023-05-10T21:25:10;3.67;;;2.20;;
40601;SDS011;26310;50.278;19.032;2023-05-10T21:30:13;4.40;;;2.63;;
40601;SDS011;26310;50.278;19.032;2023-05-10T21:35:17;7.40;;;2.63;;
40601;SDS011;26310;50.278;19.032;2023-05-10T21:40:20;3.17;;;2.33;;
40601;SDS011;26310;50.278;19.032;2023-05-10T21:45:24;6.03;;;2.57;;
40601;SDS011;26310;50.278;19.032;2023-05-10T21:50:27;3.57;;;2.30;;
40601;SDS011;26310;50.278;19.032;2023-05-10T21:55:30;4.90;;;2.10;;
40601;SDS011;26310;50.278;19.032;2023-05-10T22:00:35;3.60;;;2.30;;
40601;SDS011;26310;50.278;19.032;2023-05-10T22:05:39;3.63;;;2.53;;
40601;SDS011;26310;50.278;19.032;2023-05-10T22:10:42;2.77;;;2.20;;
40601;SDS011;26310;50.278;19.032;2023-05-10T22:15:44;6.37;;;2.73;;
40601;SDS011;26310;50.278;19.032;2023-05-10T22:20:47;4.83;;;2.60;;
40601;SDS011;26310;50.278;19.032;2023-05-10T22:25:50;5.37;;;2.33;;
40601;SDS011;26310;50.278;19.032;2023-05-10T22:30:53;4.93;;;2.40;;
40601;SDS011;26310;50.278;19.032;2023-05-10T22:35:56;5.67;;;2.70;;
40601;SDS011;26310;50.278;19.032;2023-05-10T22:40:58;7.90;;;2.80;;
40601;SDS011;26310;50.278;19.032;2023-05-10T22:46:01;4.70;;;2.57;;
40601;SDS011;26310;50.278;19.032;2023-05-10T22:51:04;4.37;;;2.67;;
40601;SDS011;26310;50.278;19.032;2023-05-10T22:56:07;5.03;;;2.43;;
40601;SDS011;26310;50.278;19.032;2023-05-10T23:01:10;5.90;;;2.70;;
40601;SDS011;26310;50.278;19.032;2023-05-10T23:06:12;5.77;;;3.13;;
40601;SDS011;26310;50.278;19.032;2023-05-10T23:11:15;4.97;;;2.77;;
40601;SDS011;26310;50.278;19.032;2023-05-10T23:16:18;4.90;;;2.53;;
40601;SDS011;26310;50.278;19.032;2023-05-10T23:21:21;4.37;;;2.60;;
40601;SDS011;26310;50.278;19.032;2023-05-10T23:26:25;5.67;;;2.47;;
40601;SDS011;26310;50.278;19.032;2023-05-10T23:31:28;6.07;;;2.67;;
40601;SDS011;26310;50.278;19.032;2023-05-10T23:36:31;4.17;;;2.53;;
40601;SDS011;26310;50.278;19.032;2023-05-10T23:41:34;6.87;;;3.20;;
